Terminal Aerodrome Forecast
Issued by NWS Tulsa, OK

Home | Current Version | Previous Version | Text Only | Print | Product List | Glossary On
Versions: 1 2 3 4 5 6 7 8 9 10 11 12 13 14 15 16 17 18 19 20 21 22
000
FTUS44 KTSA 202300
TAFFSM
TAF
KFSM 202325Z 2100/2124 06005KT P6SM OVC035
     FM210200 08003KT P6SM OVC025
     FM210400 08003KT 5SM BR OVC015
     FM210700 08003KT 4SM BR OVC008
     FM211800 12006KT P6SM OVC015=

USA.gov is the U.S. government's official web portal to all federal, state and local government web resources and services.